createdAt,value
2022-09-25T00:02:09.809Z,98859.42
2022-09-25T00:07:12.719Z,98861.48
2022-09-25T00:12:15.632Z,98861.38
2022-09-25T00:17:18.472Z,98862.10
2022-09-25T00:22:24.953Z,98861.85
2022-09-25T00:27:27.852Z,98863.27
2022-09-25T00:32:31.042Z,98860.21
2022-09-25T00:37:35.572Z,98856.56
2022-09-25T00:42:38.514Z,98852.92
2022-09-25T00:48:10.761Z,98851.80
2022-09-25T00:53:38.464Z,98844.98
2022-09-25T00:58:42.312Z,98843.24
2022-09-25T01:03:46.470Z,98839.05
2022-09-25T01:08:50.042Z,98833.98
2022-09-25T01:13:55.660Z,98836.50
2022-09-25T01:19:14.150Z,98831.40
2022-09-25T01:24:25.570Z,98819.34
2022-09-25T01:29:36.967Z,98818.53
2022-09-25T01:34:56.758Z,98816.92
2022-09-25T01:40:33.529Z,98818.80
2022-09-25T01:45:59.693Z,98812.36
2022-09-25T01:51:08.415Z,98819.60
2022-09-25T01:56:20.523Z,98810.34
2022-09-25T02:01:29.361Z,98810.27
2022-09-25T02:06:33.347Z,98815.18
2022-09-25T02:11:42.924Z,98814.46
2022-09-25T02:16:50.271Z,98815.08
2022-09-25T02:22:05.512Z,98821.98
2022-09-25T02:27:08.348Z,98819.20
2022-09-25T02:32:17.417Z,98815.96
2022-09-25T02:37:20.364Z,98812.53
2022-09-25T02:42:55.487Z,98808.50
2022-09-25T02:48:32.481Z,98805.36
2022-09-25T02:53:41.987Z,98806.14
2022-09-25T02:58:51.107Z,98805.15
2022-09-25T03:03:57.569Z,98802.23
2022-09-25T03:09:02.667Z,98799.27
2022-09-25T03:14:06.105Z,98792.08
2022-09-25T03:19:09.084Z,98788.14
2022-09-25T03:24:12.185Z,98782.23
2022-09-25T03:29:17.456Z,98776.36
2022-09-25T03:34:21.601Z,98777.55
2022-09-25T03:39:24.493Z,98778.65
2022-09-25T03:44:27.335Z,98774.15
2022-09-25T03:49:30.130Z,98772.31
2022-09-25T03:54:32.935Z,98772.62
2022-09-25T03:59:35.877Z,98771.52
2022-09-25T04:04:39.008Z,98768.67
2022-09-25T04:09:41.888Z,98763.50
2022-09-25T04:14:46.071Z,98765.96
2022-09-25T04:19:49.382Z,98765.56
2022-09-25T04:24:52.530Z,98762.80
2022-09-25T04:29:55.547Z,98764.04
2022-09-25T04:34:58.641Z,98762.87
2022-09-25T04:40:01.887Z,98763.88
2022-09-25T04:45:05.028Z,98762.24
2022-09-25T04:50:08.386Z,98764.08
2022-09-25T04:55:11.404Z,98765.24
2022-09-25T05:00:18.775Z,98758.03
2022-09-25T05:05:21.844Z,98757.02
2022-09-25T05:10:27.850Z,98754.73
2022-09-25T05:15:33.230Z,98760.34
2022-09-25T05:20:36.350Z,98757.35
2022-09-25T05:25:39.257Z,98755.17
2022-09-25T05:30:43.774Z,98764.61
2022-09-25T05:35:46.976Z,98765.86
2022-09-25T05:40:50.295Z,98771.23
2022-09-25T05:45:54.994Z,98774.33
2022-09-25T05:50:58.689Z,98767.00
2022-09-25T05:56:03.774Z,98769.33
2022-09-25T06:01:07.177Z,98769.58
2022-09-25T06:06:10.441Z,98766.89
2022-09-25T06:11:13.338Z,98771.70
2022-09-25T06:16:19.662Z,98772.14
2022-09-25T06:21:22.707Z,98767.64
2022-09-25T06:26:26.158Z,98761.27
2022-09-25T06:31:29.113Z,98757.16
2022-09-25T06:36:33.278Z,98761.04
2022-09-25T06:41:36.824Z,98764.67
2022-09-25T06:46:39.775Z,98764.87
2022-09-25T06:51:42.787Z,98765.90
2022-09-25T06:56:49.969Z,98767.32
2022-09-25T07:01:53.068Z,98768.06
2022-09-25T07:06:58.613Z,98761.77
2022-09-25T07:12:01.829Z,98754.03
2022-09-25T07:17:04.753Z,98753.90
2022-09-25T07:22:07.649Z,98757.71
2022-09-25T07:27:10.510Z,98757.83
2022-09-25T07:32:13.322Z,98765.23
2022-09-25T07:37:17.029Z,98761.48
2022-09-25T07:42:19.914Z,98763.67
2022-09-25T07:47:22.791Z,98759.34
2022-09-25T07:52:25.727Z,98752.56
2022-09-25T07:57:28.628Z,98746.48
2022-09-25T08:02:32.002Z,98749.39
2022-09-25T08:07:34.934Z,98754.23
2022-09-25T08:12:37.809Z,98753.45
2022-09-25T08:17:41.411Z,98756.28
2022-09-25T08:22:44.233Z,98757.06
2022-09-25T08:27:47.187Z,98756.23
2022-09-25T08:32:50.536Z,98755.06
2022-09-25T08:37:53.890Z,98750.09
2022-09-25T08:42:57.597Z,98744.54
2022-09-25T08:48:19.761Z,98743.50
2022-09-25T08:53:26.378Z,98747.42
2022-09-25T08:58:32.200Z,98744.77
2022-09-25T09:03:46.272Z,98734.71
2022-09-25T09:09:14.397Z,98724.40
2022-09-25T09:14:20.680Z,98716.98
2022-09-25T09:19:23.678Z,98711.06
2022-09-25T09:24:53.866Z,98705.95
2022-09-25T09:30:23.982Z,98701.55
2022-09-25T09:35:52.441Z,98700.73
2022-09-25T09:41:31.087Z,98697.31
2022-09-25T09:46:57.461Z,98692.23
2022-09-25T09:52:11.369Z,98688.11
2022-09-25T09:57:26.664Z,98692.80
2022-09-25T10:02:51.294Z,98693.14
2022-09-25T10:07:54.496Z,98694.97
2022-09-25T10:13:04.069Z,98693.17
2022-09-25T10:18:09.462Z,98696.21
2022-09-25T10:23:33.751Z,98685.11
2022-09-25T10:28:36.925Z,98677.55
2022-09-25T10:33:39.859Z,98669.77
2022-09-25T10:38:53.446Z,98675.15
2022-09-25T10:44:02.545Z,98674.25
2022-09-25T10:49:33.513Z,98669.99
2022-09-25T10:54:43.654Z,98671.61
2022-09-25T10:59:52.228Z,98673.69
2022-09-25T11:04:57.171Z,98677.71
2022-09-25T11:10:00.617Z,98679.29
2022-09-25T11:15:08.977Z,98674.10
2022-09-25T11:20:30.233Z,98673.48
2022-09-25T11:25:48.749Z,98665.58
2022-09-25T11:31:22.626Z,98663.27
2022-09-25T11:36:31.912Z,98662.27
2022-09-25T11:41:43.948Z,98658.71
2022-09-25T11:47:11.859Z,98653.74
2022-09-25T11:52:37.360Z,98652.84
2022-09-25T11:57:56.610Z,98645.85
2022-09-25T12:03:20.531Z,98633.63
2022-09-25T12:08:26.937Z,98632.21
2022-09-25T12:13:41.598Z,98631.00
2022-09-25T12:19:03.205Z,98623.10
2022-09-25T12:24:17.876Z,98609.54
2022-09-25T12:29:26.191Z,98597.59
2022-09-25T12:34:34.602Z,98586.25
2022-09-25T12:39:44.849Z,98578.29
2022-09-25T12:45:02.037Z,98574.94
2022-09-25T12:50:17.008Z,98576.87
2022-09-25T12:55:26.795Z,98578.34
2022-09-25T13:00:33.026Z,98577.01
2022-09-25T13:05:50.359Z,98580.49
2022-09-25T13:11:02.456Z,98578.57
2022-09-25T13:16:05.806Z,98573.12
2022-09-25T13:21:26.152Z,98569.65
2022-09-25T13:26:30.362Z,98567.61
2022-09-25T13:31:37.169Z,98566.58
2022-09-25T13:36:53.587Z,98565.21
2022-09-25T13:41:57.008Z,98562.90
2022-09-25T13:47:22.089Z,98562.42
2022-09-25T13:52:36.868Z,98564.24
2022-09-25T13:57:58.441Z,98564.75
2022-09-25T14:03:03.282Z,98558.20
2022-09-25T14:08:15.973Z,98556.02
2022-09-25T14:13:25.404Z,98557.36
2022-09-25T14:18:44.023Z,98551.55
2022-09-25T14:23:52.306Z,98543.94
2022-09-25T14:28:57.297Z,98548.44
2022-09-25T14:34:41.338Z,98538.89
2022-09-25T14:40:02.338Z,98534.30
2022-09-25T14:45:34.936Z,98526.07
2022-09-25T14:50:45.805Z,98529.15
2022-09-25T14:55:53.094Z,98523.05
2022-09-25T15:01:02.087Z,98515.94
2022-09-25T15:06:05.136Z,98514.23
2022-09-25T15:11:16.385Z,98521.45
2022-09-25T15:16:44.034Z,98521.56
2022-09-25T15:21:47.695Z,98513.48
2022-09-25T15:27:03.078Z,98504.68
2022-09-25T15:32:06.621Z,98502.08
2022-09-25T15:37:29.479Z,98506.38
2022-09-25T15:42:33.124Z,98498.23
2022-09-25T15:47:35.907Z,98502.15
2022-09-25T15:52:39.305Z,98502.08
2022-09-25T15:57:42.443Z,98500.00
2022-09-25T16:03:17.333Z,98505.51
2022-09-25T16:08:36.921Z,98501.34
2022-09-25T16:13:43.750Z,98488.27
2022-09-25T16:18:47.075Z,98480.73
2022-09-25T16:24:07.557Z,98477.84
2022-09-25T16:29:11.521Z,98474.21
2022-09-25T16:34:39.108Z,98474.14
2022-09-25T16:39:43.680Z,98474.61
2022-09-25T16:44:47.236Z,98478.83
2022-09-25T16:49:50.549Z,98479.48
2022-09-25T16:54:57.023Z,98486.42
2022-09-25T17:00:00.018Z,98485.52
2022-09-25T17:05:11.151Z,98485.86
2022-09-25T17:10:16.508Z,98489.96
2022-09-25T17:15:27.628Z,98491.12
2022-09-25T17:20:31.316Z,98492.33
2022-09-25T17:25:45.857Z,98492.30
2022-09-25T17:30:48.822Z,98501.80
2022-09-25T17:36:04.196Z,98504.78
2022-09-25T17:41:34.125Z,98503.90
2022-09-25T17:46:37.380Z,98491.14
2022-09-25T17:51:40.922Z,98486.52
2022-09-25T17:56:45.473Z,98491.59
2022-09-25T18:01:48.459Z,98490.67
2022-09-25T18:06:52.192Z,98483.52
2022-09-25T18:11:55.187Z,98475.62
2022-09-25T18:16:58.307Z,98476.84
2022-09-25T18:22:21.897Z,98477.05
2022-09-25T18:27:27.805Z,98479.53
2022-09-25T18:32:31.785Z,98477.63
2022-09-25T18:37:35.131Z,98474.73
2022-09-25T18:42:38.440Z,98482.45
2022-09-25T18:47:42.540Z,98485.23
2022-09-25T18:52:45.668Z,98474.80
2022-09-25T18:57:48.667Z,98475.42
2022-09-25T19:02:51.657Z,98478.96
2022-09-25T19:07:54.963Z,98478.20
2022-09-25T19:12:57.929Z,98480.39
2022-09-25T19:18:00.792Z,98479.40
2022-09-25T19:23:03.760Z,98479.59
2022-09-25T19:28:07.951Z,98475.25
2022-09-25T19:33:10.858Z,98472.95
2022-09-25T19:38:13.769Z,98475.90
2022-09-25T19:43:16.829Z,98475.14
2022-09-25T19:48:20.981Z,98470.23
2022-09-25T19:53:23.852Z,98467.55
2022-09-25T19:58:26.723Z,98470.30
2022-09-25T20:03:29.934Z,98467.76
2022-09-25T20:08:33.413Z,98472.96
2022-09-25T20:13:36.336Z,98475.13
2022-09-25T20:18:39.480Z,98471.81
2022-09-25T20:23:42.572Z,98462.15
2022-09-25T20:28:46.549Z,98455.58
2022-09-25T20:33:49.561Z,98452.61
2022-09-25T20:38:54.134Z,98445.08
2022-09-25T20:43:58.069Z,98437.64
2022-09-25T20:49:02.376Z,98434.73
2022-09-25T20:54:07.550Z,98431.52
2022-09-25T20:59:11.387Z,98429.25
2022-09-25T21:04:18.271Z,98423.06
2022-09-25T21:09:24.122Z,98422.77
2022-09-25T21:14:28.571Z,98428.48
2022-09-25T21:19:31.947Z,98423.55
2022-09-25T21:24:35.946Z,98420.15
2022-09-25T21:29:39.251Z,98427.92
2022-09-25T21:34:42.185Z,98426.88
2022-09-25T21:39:45.025Z,98423.28
2022-09-25T21:44:48.110Z,98415.14
2022-09-25T21:49:51.112Z,98416.23
2022-09-25T21:54:54.721Z,98414.55
2022-09-25T21:59:57.564Z,98408.08
2022-09-25T22:05:02.178Z,98408.67
2022-09-25T22:10:07.138Z,98406.11
2022-09-25T22:15:10.437Z,98403.29
2022-09-25T22:20:13.729Z,98403.05
2022-09-25T22:25:16.700Z,98398.27
2022-09-25T22:30:19.786Z,98399.61
2022-09-25T22:35:22.725Z,98396.61
2022-09-25T22:40:25.653Z,98393.34
2022-09-25T22:45:29.377Z,98383.34
2022-09-25T22:50:32.245Z,98386.45
2022-09-25T22:55:35.094Z,98382.63
2022-09-25T23:00:42.983Z,98381.67
2022-09-25T23:05:47.553Z,98377.50
2022-09-25T23:11:06.638Z,98371.62
2022-09-25T23:16:12.948Z,98368.58
2022-09-25T23:21:16.856Z,98369.42
2022-09-25T23:26:20.392Z,98363.71
2022-09-25T23:31:27.147Z,98366.66
2022-09-25T23:36:32.705Z,98369.26
2022-09-25T23:41:39.838Z,98362.89
2022-09-25T23:46:46.231Z,98357.86
2022-09-25T23:51:51.826Z,98353.56
2022-09-25T23:56:57.765Z,98343.08
